Time;durP1;ratioP1;P1;durP2;ratioP2;P2;SDS_P1;SDS_P2;PMS_P1;PMS_P2;Temp;Humidity;BMP_temperature;BMP_pressure;BME280_temperature;BME280_humidity;BME280_pressure;Samples;Min_cycle;Max_cycle;Signal;HPM_P1;HPM_P2
2023/01/11 00:01:20;;;;;;;9.52;5.25;;;8.50;99.90;;;;;;5048076;28;20035;-85
2023/01/11 00:03:46;;;;;;;9.30;4.85;;;8.50;99.90;;;;;;5029420;28;20048;-85
2023/01/11 00:06:12;;;;;;;8.93;4.82;;;8.60;99.90;;;;;;5055551;28;20642;-86
2023/01/11 00:08:38;;;;;;;9.57;5.05;;;8.50;99.90;;;;;;5036169;28;20121;-85
2023/01/11 00:11:09;;;;;;;9.82;5.20;;;8.60;99.90;;;;;;5047320;28;20076;-85
2023/01/11 00:13:35;;;;;;;9.85;4.82;;;8.60;99.90;;;;;;5061309;28;20037;-86
2023/01/11 00:16:08;;;;;;;8.70;4.40;;;8.60;99.90;;;;;;5044717;28;20071;-84
2023/01/11 00:18:35;;;;;;;9.13;4.97;;;8.60;99.90;;;;;;5041105;28;20587;-85
2023/01/11 00:21:04;;;;;;;9.38;4.65;;;8.60;99.90;;;;;;5040064;28;20041;-84
2023/01/11 00:23:31;;;;;;;9.00;4.60;;;8.60;99.90;;;;;;5041112;28;20118;-85
2023/01/11 00:25:57;;;;;;;9.70;4.55;;;7.50;99.90;;;;;;5057526;28;20036;-85
2023/01/11 00:28:23;;;;;;;9.13;4.70;;;8.70;99.90;;;;;;5064138;28;20036;-85
2023/01/11 00:30:48;;;;;;;8.88;4.60;;;8.70;99.90;;;;;;5044517;28;20044;-85
2023/01/11 00:33:14;;;;;;;9.07;4.80;;;8.70;99.90;;;;;;5044382;28;20045;-85
2023/01/11 00:35:40;;;;;;;9.10;4.78;;;8.70;99.90;;;;;;5064387;28;20057;-84
2023/01/11 00:38:06;;;;;;;8.50;4.32;;;8.70;99.90;;;;;;5023132;28;20068;-86
2023/01/11 00:40:31;;;;;;;8.90;4.55;;;8.70;99.90;;;;;;5039706;28;20041;-84
2023/01/11 00:47:55;;;;;;;8.98;4.40;;;8.80;99.90;;;;;;5062188;28;20051;-85
2023/01/11 00:48:45;;;;;;;8.18;4.13;;;8.80;99.90;;;;;;5048189;28;20229;-86
2023/01/11 00:51:11;;;;;;;8.38;4.40;;;8.80;99.90;;;;;;5043986;28;20557;-86
2023/01/11 00:53:36;;;;;;;8.45;4.35;;;8.80;99.90;;;;;;5066340;28;20070;-85
2023/01/11 00:56:02;;;;;;;9.00;4.20;;;8.80;99.90;;;;;;5055871;28;20036;-86
2023/01/11 00:58:28;;;;;;;9.35;4.60;;;8.90;99.90;;;;;;5050804;28;20146;-86
2023/01/11 01:00:53;;;;;;;8.27;3.95;;;8.90;99.90;;;;;;5043689;28;20236;-85
2023/01/11 01:03:19;;;;;;;9.35;4.63;;;8.90;99.90;;;;;;5054737;28;20043;-86
2023/01/11 01:05:45;;;;;;;8.55;4.07;;;8.90;99.90;;;;;;5086174;28;20052;-84
2023/01/11 01:08:10;;;;;;;8.15;4.07;;;8.90;99.90;;;;;;5046120;28;20080;-86
2023/01/11 01:10:36;;;;;;;8.43;3.90;;;9.00;99.90;;;;;;5064053;28;20445;-85
2023/01/11 01:15:46;;;;;;;9.48;3.97;;;9.00;99.90;;;;;;5049215;28;20033;-86
2023/01/11 01:18:12;;;;;;;8.55;4.00;;;9.00;99.90;;;;;;5058048;28;20048;-85
2023/01/11 01:20:37;;;;;;;8.10;3.92;;;9.10;99.90;;;;;;5021681;28;20104;-85
2023/01/11 01:23:03;;;;;;;7.95;3.58;;;9.10;99.90;;;;;;5042924;28;20397;-85
2023/01/11 01:25:29;;;;;;;8.07;4.05;;;9.10;99.90;;;;;;5039653;28;20048;-84
2023/01/11 01:27:54;;;;;;;9.02;3.80;;;9.10;99.90;;;;;;5024166;28;20049;-86
2023/01/11 01:30:20;;;;;;;8.43;3.92;;;9.10;99.90;;;;;;5038762;28;20044;-87
2023/01/11 01:32:46;;;;;;;8.60;3.47;;;9.10;99.90;;;;;;5057622;28;20058;-86
2023/01/11 01:35:12;;;;;;;7.45;3.38;;;9.10;99.90;;;;;;5019409;28;20698;-86
2023/01/11 01:37:37;;;;;;;10.82;4.20;;;9.10;99.90;;;;;;5045452;28;20028;-86
2023/01/11 01:40:05;;;;;;;7.80;3.78;;;9.10;99.90;;;;;;5044253;28;20039;-86
2023/01/11 01:42:31;;;;;;;7.95;3.83;;;9.10;99.90;;;;;;5080074;28;20501;-86
2023/01/11 01:45:21;;;;;;;7.45;3.60;;;9.20;99.90;;;;;;5020107;28;20062;-86
2023/01/11 01:48:12;;;;;;;8.25;3.80;;;9.20;99.90;;;;;;5073197;28;20044;-87
2023/01/11 01:50:44;;;;;;;8.20;4.00;;;9.20;99.90;;;;;;5065007;28;20041;-85
2023/01/11 01:53:28;;;;;;;8.98;3.58;;;9.20;99.90;;;;;;5035189;28;20041;-87
2023/01/11 01:55:56;;;;;;;;;;;9.20;99.90;;;;;;5058352;28;20037;-85
2023/01/11 01:58:27;;;;;;;7.90;3.80;;;9.30;99.90;;;;;;5072438;28;19917;-85
2023/01/11 02:00:53;;;;;;;8.02;3.83;;;9.30;99.90;;;;;;5035591;28;21113;-84
2023/01/11 02:03:23;;;;;;;8.55;3.75;;;9.30;99.90;;;;;;5022018;28;20096;-84
2023/01/11 02:05:51;;;;;;;8.30;3.65;;;9.30;99.90;;;;;;5058507;28;20041;-85
2023/01/11 02:08:28;;;;;;;7.72;3.55;;;9.40;99.90;;;;;;5049180;28;21223;-85
2023/01/11 02:10:54;;;;;;;8.02;3.55;;;9.40;99.90;;;;;;5053308;28;20469;-86
2023/01/11 02:13:20;;;;;;;8.38;3.60;;;9.40;99.90;;;;;;5061353;28;20052;-86
2023/01/11 02:16:06;;;;;;;7.90;3.25;;;9.40;99.90;;;;;;5037291;28;20095;-86
2023/01/11 02:18:33;;;;;;;7.68;3.30;;;9.50;99.90;;;;;;5036528;28;20037;-87
2023/01/11 02:21:35;;;;;;;7.72;3.28;;;9.50;99.90;;;;;;5046299;28;20068;-86
2023/01/11 02:24:43;;;;;;;7.13;3.08;;;9.50;99.90;;;;;;5073227;28;20045;-87
2023/01/11 02:27:20;;;;;;;6.78;2.97;;;9.50;99.90;;;;;;5001552;28;20523;-86
2023/01/11 02:29:48;;;;;;;7.05;3.05;;;9.50;99.90;;;;;;5038765;28;20083;-86
2023/01/11 02:32:55;;;;;;;6.90;3.00;;;9.50;99.90;;;;;;5075035;28;20055;-86
2023/01/11 02:35:52;;;;;;;8.20;3.00;;;9.60;99.90;;;;;;4973401;28;20054;-86
2023/01/11 02:38:32;;;;;;;7.70;3.10;;;9.60;99.90;;;;;;4982605;28;20065;-87
2023/01/11 02:41:23;;;;;;;6.88;3.10;;;9.60;99.90;;;;;;5032843;28;20371;-87
2023/01/11 02:47:05;;;;;;;7.13;3.05;;;9.60;99.90;;;;;;5072355;28;20040;-86
2023/01/11 02:49:38;;;;;;;6.93;2.70;;;9.60;99.90;;;;;;5052929;28;20048;-87
2023/01/11 02:52:37;;;;;;;7.32;2.75;;;9.60;99.90;;;;;;5043586;28;20079;-86
2023/01/11 02:55:06;;;;;;;6.63;2.60;;;9.70;99.90;;;;;;5028118;28;20044;-86
2023/01/11 02:57:34;;;;;;;6.45;2.40;;;9.70;99.90;;;;;;5062700;28;20060;-87
2023/01/11 03:00:01;;;;;;;6.95;2.63;;;9.70;99.90;;;;;;5060243;28;20126;-87
2023/01/11 03:02:26;;;;;;;6.85;2.65;;;9.70;99.90;;;;;;5063015;28;20043;-86
2023/01/11 03:04:52;;;;;;;6.93;2.65;;;9.70;99.90;;;;;;5057347;28;20040;-86
2023/01/11 03:07:23;;;;;;;6.47;2.50;;;9.70;99.90;;;;;;5054696;28;20033;-86
2023/01/11 03:10:17;;;;;;;6.10;2.22;;;9.70;99.90;;;;;;5059880;28;20041;-85
2023/01/11 03:13:13;;;;;;;6.00;2.20;;;9.80;99.90;;;;;;5040696;28;20479;-86
2023/01/11 03:15:52;;;;;;;7.32;2.30;;;9.80;99.90;;;;;;5044109;28;20037;-85
2023/01/11 03:18:39;;;;;;;8.63;2.40;;;9.80;99.90;;;;;;5044862;28;20040;-86
2023/01/11 03:21:38;;;;;;;6.53;2.20;;;9.80;99.90;;;;;;5039817;28;20041;-84
2023/01/11 03:24:17;;;;;;;6.22;2.28;;;9.80;99.90;;;;;;5058326;28;20546;-85
2023/01/11 03:26:46;;;;;;;6.95;2.53;;;9.80;99.90;;;;;;5059702;28;20059;-85
2023/01/11 03:29:34;;;;;;;5.57;2.15;;;9.80;99.90;;;;;;5064109;28;20393;-85
2023/01/11 03:32:09;;;;;;;6.70;2.17;;;9.80;99.90;;;;;;5061053;28;20121;-86
2023/01/11 03:34:40;;;;;;;4.05;1.88;;;9.80;99.90;;;;;;5039296;28;20050;-85
2023/01/11 03:37:12;;;;;;;6.40;1.92;;;9.90;99.90;;;;;;5057432;28;20047;-85
2023/01/11 03:39:46;;;;;;;4.18;1.80;;;9.90;99.90;;;;;;5058601;28;20045;-84
2023/01/11 03:42:15;;;;;;;5.05;1.70;;;9.90;99.90;;;;;;5058746;28;20036;-86
2023/01/11 03:44:49;;;;;;;5.30;1.67;;;9.90;99.90;;;;;;5063243;28;20063;-87
2023/01/11 03:47:17;;;;;;;4.05;1.60;;;9.90;99.90;;;;;;5057890;28;20037;-87
2023/01/11 03:49:55;;;;;;;2.65;1.30;;;9.90;99.90;;;;;;5076364;28;20024;-86
2023/01/11 03:52:25;;;;;;;2.65;1.30;;;9.90;99.90;;;;;;5061940;28;20051;-86
2023/01/11 03:54:54;;;;;;;3.35;1.20;;;9.90;99.90;;;;;;5046289;28;20061;-85
2023/01/11 03:57:23;;;;;;;2.17;1.30;;;9.90;99.90;;;;;;5064172;28;20128;-85
2023/01/11 03:59:49;;;;;;;3.08;1.50;;;9.90;99.90;;;;;;5055961;28;20040;-85
2023/01/11 04:02:21;;;;;;;4.38;1.70;;;9.90;99.90;;;;;;5073901;28;20068;-85
2023/01/11 04:04:47;;;;;;;6.65;1.67;;;10.00;99.90;;;;;;5057973;28;20047;-85
2023/01/11 04:07:13;;;;;;;6.10;2.00;;;10.00;99.90;;;;;;5043343;28;20215;-85
2023/01/11 04:09:39;;;;;;;4.88;1.73;;;9.90;99.90;;;;;;5045988;28;20164;-86
2023/01/11 04:12:05;;;;;;;9.20;2.33;;;10.00;99.90;;;;;;5054689;28;20367;-85
2023/01/11 04:14:30;;;;;;;6.75;2.13;;;10.00;99.90;;;;;;5066727;28;20367;-84
2023/01/11 04:16:56;;;;;;;7.70;2.25;;;10.00;99.90;;;;;;5063071;28;20482;-85
2023/01/11 04:19:22;;;;;;;9.40;2.40;;;10.10;99.90;;;;;;5064765;28;20040;-85
2023/01/11 04:21:48;;;;;;;10.45;2.90;;;10.10;99.90;;;;;;5075480;28;20044;-85
2023/01/11 04:24:14;;;;;;;12.98;3.00;;;10.10;99.90;;;;;;5070635;28;20131;-86
2023/01/11 04:26:39;;;;;;;10.48;3.10;;;10.10;99.90;;;;;;5059260;28;20498;-86
2023/01/11 04:29:05;;;;;;;12.35;3.20;;;10.10;99.90;;;;;;5044543;28;20036;-86
2023/01/11 04:31:32;;;;;;;13.05;3.30;;;10.10;99.90;;;;;;5036378;28;20323;-86
2023/01/11 04:33:57;;;;;;;12.55;3.30;;;10.10;99.90;;;;;;5043701;28;20040;-86
2023/01/11 04:36:24;;;;;;;12.25;3.67;;;10.10;99.90;;;;;;5032427;28;20049;-86
2023/01/11 04:38:50;;;;;;;11.40;3.28;;;10.10;99.90;;;;;;5041941;28;20437;-85
2023/01/11 04:44:00;;;;;;;14.15;3.50;;;10.20;99.90;;;;;;5058170;28;21326;-86
2023/01/11 04:46:26;;;;;;;9.07;2.22;;;10.20;99.90;;;;;;5020366;28;20031;-87
2023/01/11 04:48:52;;;;;;;8.93;2.05;;;10.10;99.90;;;;;;5045892;28;20510;-88
2023/01/11 04:51:18;;;;;;;14.65;2.72;;;9.90;99.90;;;;;;5060974;28;20064;-86
2023/01/11 04:53:47;;;;;;;10.13;2.08;;;9.80;99.90;;;;;;5055196;28;20048;-86
2023/01/11 04:56:13;;;;;;;10.35;2.15;;;9.70;99.90;;;;;;5038487;28;20068;-87
2023/01/11 04:58:39;;;;;;;9.38;2.10;;;9.60;99.90;;;;;;5014142;28;20091;-86
2023/01/11 05:01:16;;;;;;;10.48;2.20;;;9.60;99.90;;;;;;5045091;28;20036;-86
2023/01/11 05:03:43;;;;;;;7.60;2.20;;;9.50;99.90;;;;;;5073673;28;20471;-86
2023/01/11 05:06:09;;;;;;;7.75;1.90;;;9.50;99.90;;;;;;5043332;28;20037;-86
2023/01/11 05:08:35;;;;;;;10.13;2.10;;;9.50;99.90;;;;;;5056126;28;20032;-86
2023/01/11 05:11:03;;;;;;;13.00;2.35;;;9.50;99.90;;;;;;5063705;28;20064;-86
2023/01/11 05:13:41;;;;;;;8.60;2.00;;;9.40;99.90;;;;;;5059613;28;20037;-86
2023/01/11 05:16:11;;;;;;;11.07;2.13;;;9.40;99.90;;;;;;5061447;28;20043;-86
2023/01/11 05:18:42;;;;;;;10.65;2.03;;;9.40;99.90;;;;;;5037463;28;20107;-86
2023/01/11 05:21:09;;;;;;;9.35;2.03;;;9.40;99.90;;;;;;5024158;28;20040;-84
2023/01/11 05:23:36;;;;;;;12.05;2.70;;;9.40;99.90;;;;;;5052552;28;20157;-85
2023/01/11 05:26:07;;;;;;;11.35;2.33;;;9.40;99.90;;;;;;5045947;28;20058;-86
2023/01/11 05:28:33;;;;;;;13.32;2.45;;;9.50;99.90;;;;;;5038013;28;20316;-85
2023/01/11 05:30:59;;;;;;;12.68;2.20;;;9.50;99.90;;;;;;5052166;28;20546;-85
2023/01/11 05:33:25;;;;;;;13.77;2.70;;;9.50;99.90;;;;;;5073881;28;20073;-85
2023/01/11 05:35:56;;;;;;;10.18;2.20;;;9.50;99.90;;;;;;5064935;28;20478;-85
2023/01/11 05:38:22;;;;;;;15.63;2.65;;;9.50;99.90;;;;;;5043820;28;20480;-86
2023/01/11 05:40:55;;;;;;;14.45;3.05;;;9.50;99.90;;;;;;5048215;28;20033;-86
2023/01/11 05:43:20;;;;;;;11.57;3.00;;;9.50;99.90;;;;;;5055756;28;20040;-87
2023/01/11 05:45:46;;;;;;;13.13;2.80;;;9.50;99.90;;;;;;5040890;28;20386;-87
2023/01/11 05:48:12;;;;;;;13.27;2.97;;;9.50;99.90;;;;;;5061406;28;20078;-87
2023/01/11 05:50:37;;;;;;;13.90;2.85;;;9.50;99.90;;;;;;5046170;28;20064;-87
2023/01/11 05:53:03;;;;;;;12.38;2.50;;;9.50;99.90;;;;;;5044635;28;20040;-87
2023/01/11 05:55:29;;;;;;;13.48;2.95;;;9.50;99.90;;;;;;5027435;28;20044;-88
2023/01/11 05:57:54;;;;;;;13.50;2.70;;;9.50;99.90;;;;;;5055576;28;20153;-84
2023/01/11 06:00:20;;;;;;;15.55;2.55;;;9.50;99.90;;;;;;5039065;28;20115;-86
2023/01/11 06:02:46;;;;;;;13.68;2.40;;;9.50;99.90;;;;;;5043890;28;20045;-85
2023/01/11 06:05:12;;;;;;;17.80;3.03;;;9.50;99.90;;;;;;5027338;28;20045;-86
2023/01/11 06:07:38;;;;;;;15.23;2.70;;;9.40;99.90;;;;;;5042397;28;20152;-87
2023/01/11 06:10:05;;;;;;;13.70;2.85;;;9.40;99.90;;;;;;5039583;28;20036;-87
2023/01/11 06:12:30;;;;;;;16.85;2.78;;;9.40;99.90;;;;;;5063231;28;20063;-87
2023/01/11 06:14:56;;;;;;;17.15;3.22;;;9.30;99.90;;;;;;5064679;28;21186;-88
2023/01/11 06:17:22;;;;;;;18.10;3.22;;;9.30;99.90;;;;;;5061954;28;20040;-87
2023/01/11 06:19:47;;;;;;;19.45;3.65;;;9.20;99.90;;;;;;5030912;28;20032;-88
2023/01/11 06:22:13;;;;;;;20.88;3.55;;;9.30;99.90;;;;;;5013482;28;20105;-88
2023/01/11 06:24:39;;;;;;;18.88;3.55;;;9.30;99.90;;;;;;5059538;28;20110;-87
2023/01/11 06:27:04;;;;;;;20.75;3.80;;;9.20;99.90;;;;;;5042287;28;20300;-87
2023/01/11 06:29:30;;;;;;;24.00;3.97;;;9.30;99.90;;;;;;5059380;28;20044;-89
2023/01/11 06:31:57;;;;;;;15.07;3.47;;;9.20;99.90;;;;;;5028662;28;20064;-87
2023/01/11 06:34:23;;;;;;;16.73;3.35;;;9.30;99.90;;;;;;5041940;28;20098;-87
2023/01/11 06:36:48;;;;;;;18.45;3.47;;;9.30;99.90;;;;;;5039377;28;20056;-86
2023/01/11 06:39:14;;;;;;;17.55;3.58;;;9.30;99.90;;;;;;5039704;28;20042;-86
2023/01/11 06:41:40;;;;;;;19.45;3.03;;;9.30;99.90;;;;;;5061047;28;20452;-86
2023/01/11 06:44:05;;;;;;;15.73;3.70;;;9.20;99.90;;;;;;5056749;28;20041;-86
2023/01/11 06:46:31;;;;;;;20.90;3.90;;;9.20;99.90;;;;;;5036456;28;20045;-86
2023/01/11 06:48:57;;;;;;;20.45;3.35;;;9.20;99.90;;;;;;5053117;28;20120;-85
2023/01/11 06:51:23;;;;;;;16.85;3.45;;;9.20;99.90;;;;;;5036369;28;20044;-88
2023/01/11 06:53:48;;;;;;;21.90;3.35;;;9.20;99.90;;;;;;5028856;28;20037;-86
2023/01/11 06:56:17;;;;;;;21.58;3.83;;;9.20;99.90;;;;;;5053037;28;20045;-86
2023/01/11 06:58:44;;;;;;;20.73;3.25;;;9.30;99.90;;;;;;5054951;28;20112;-87
2023/01/11 07:01:10;;;;;;;20.25;3.80;;;9.30;99.90;;;;;;5068122;28;20043;-87
2023/01/11 07:03:38;;;;;;;19.15;3.47;;;9.30;99.90;;;;;;5072869;28;20037;-86
2023/01/11 07:06:03;;;;;;;18.83;3.55;;;9.30;99.90;;;;;;5056220;28;20557;-86
2023/01/11 07:08:29;;;;;;;24.15;3.97;;;9.20;99.90;;;;;;5054070;28;20083;-86
2023/01/11 07:10:55;;;;;;;15.52;3.38;;;9.20;99.90;;;;;;5069581;28;20067;-85
2023/01/11 07:13:21;;;;;;;20.92;3.80;;;9.30;99.90;;;;;;5038934;28;20033;-86
2023/01/11 07:15:49;;;;;;;20.75;3.42;;;9.20;99.90;;;;;;5040248;28;20076;-86
2023/01/11 07:18:16;;;;;;;20.75;3.38;;;9.20;99.90;;;;;;5063721;28;20125;-85
2023/01/11 07:20:42;;;;;;;19.52;4.13;;;9.20;99.90;;;;;;5076626;28;20040;-85
2023/01/11 07:23:09;;;;;;;25.52;3.58;;;9.30;99.90;;;;;;5073667;28;20052;-86
2023/01/11 07:25:35;;;;;;;20.02;3.63;;;9.30;99.90;;;;;;5048803;28;20041;-86
2023/01/11 07:28:03;;;;;;;19.33;3.25;;;9.20;99.90;;;;;;5063103;28;20040;-87
2023/01/11 07:30:32;;;;;;;14.63;3.13;;;9.20;99.90;;;;;;5046928;28;20124;-87
2023/01/11 07:32:59;;;;;;;17.95;3.42;;;9.20;99.90;;;;;;5067145;28;20046;-86
2023/01/11 07:35:28;;;;;;;19.55;3.20;;;9.20;99.90;;;;;;5066556;28;20226;-86
2023/01/11 07:37:54;;;;;;;13.85;2.83;;;9.10;99.90;;;;;;5060274;28;20513;-87
2023/01/11 07:40:19;;;;;;;18.98;3.25;;;9.10;99.90;;;;;;5060574;28;20038;-87
2023/01/11 07:45:36;;;;;;;17.08;3.08;;;9.10;99.90;;;;;;5060273;28;20049;-87
2023/01/11 07:48:07;;;;;;;17.42;3.13;;;9.10;99.90;;;;;;5061449;28;20116;-87
2023/01/11 07:50:33;;;;;;;16.17;3.15;;;9.10;99.90;;;;;;5064027;28;20072;-87
2023/01/11 07:52:58;;;;;;;17.73;3.08;;;9.10;99.90;;;;;;5030102;28;20064;-86
2023/01/11 07:55:24;;;;;;;17.30;2.90;;;9.10;99.90;;;;;;5072714;28;20633;-87
2023/01/11 07:57:50;;;;;;;16.17;3.47;;;9.10;99.90;;;;;;5041875;28;20039;-87
2023/01/11 08:00:16;;;;;;;17.00;3.35;;;9.10;99.90;;;;;;5063759;28;20055;-86
2023/01/11 08:02:42;;;;;;;16.45;3.80;;;9.00;99.90;;;;;;5045251;28;20169;-87
2023/01/11 08:05:08;;;;;;;14.38;2.80;;;9.00;99.90;;;;;;5072617;28;20057;-87
2023/01/11 08:07:34;;;;;;;16.65;2.90;;;9.00;99.90;;;;;;5065446;28;20558;-86
2023/01/11 08:10:00;;;;;;;15.50;2.88;;;9.00;99.90;;;;;;5075881;28;20123;-85
2023/01/11 08:15:12;;;;;;;14.93;2.83;;;8.90;99.90;;;;;;5060067;28;20043;-87
2023/01/11 08:17:38;;;;;;;15.27;2.95;;;8.90;99.90;;;;;;5049089;28;21381;-86
2023/01/11 08:20:04;;;;;;;17.65;3.17;;;8.90;99.90;;;;;;5062854;28;20115;-86
2023/01/11 08:22:30;;;;;;;16.23;3.58;;;8.90;99.90;;;;;;5062119;28;20062;-86
2023/01/11 08:24:56;;;;;;;18.25;3.08;;;8.90;99.90;;;;;;5066157;28;20036;-86
2023/01/11 08:27:22;;;;;;;17.05;2.80;;;8.90;99.90;;;;;;5027508;28;20521;-86
2023/01/11 08:29:47;;;;;;;16.00;3.22;;;8.90;99.90;;;;;;5044541;28;20517;-86
2023/01/11 08:32:13;;;;;;;21.60;3.97;;;8.80;99.90;;;;;;5045363;28;20043;-86
2023/01/11 08:34:39;;;;;;;13.45;3.03;;;8.80;99.90;;;;;;5063595;28;20037;-86
2023/01/11 08:37:05;;;;;;;16.02;2.95;;;8.70;99.90;;;;;;5021093;28;20045;-86
2023/01/11 08:39:31;;;;;;;15.90;3.20;;;8.70;99.90;;;;;;5063335;28;20036;-87
2023/01/11 08:42:01;;;;;;;14.75;2.90;;;8.70;99.90;;;;;;5063153;28;20079;-87
2023/01/11 08:44:27;;;;;;;15.38;3.00;;;8.70;99.90;;;;;;5045461;28;20032;-86
2023/01/11 08:46:53;;;;;;;20.25;3.05;;;8.70;99.90;;;;;;5060133;28;20551;-86
2023/01/11 08:49:18;;;;;;;13.80;2.45;;;8.70;99.90;;;;;;5030811;28;20037;-86
2023/01/11 08:51:44;;;;;;;16.05;3.00;;;8.70;99.90;;;;;;5074867;28;20090;-85
2023/01/11 08:54:12;;;;;;;16.75;2.85;;;8.70;99.90;;;;;;5028409;28;20036;-85
2023/01/11 08:56:38;;;;;;;22.73;3.10;;;8.70;99.90;;;;;;5045442;28;20453;-85
2023/01/11 08:59:04;;;;;;;15.45;2.72;;;8.70;99.90;;;;;;5054419;28;20032;-85
2023/01/11 09:01:31;;;;;;;23.55;3.38;;;8.70;99.90;;;;;;5057745;28;20036;-85
2023/01/11 09:03:57;;;;;;;14.07;2.40;;;8.70;99.90;;;;;;5043792;28;20037;-85
2023/01/11 09:06:22;;;;;;;16.17;2.75;;;8.70;99.90;;;;;;5071396;28;20039;-85
2023/01/11 09:08:48;;;;;;;13.95;2.28;;;8.70;99.90;;;;;;5038777;28;20036;-85
2023/01/11 09:13:58;;;;;;;10.73;2.53;;;8.70;99.90;;;;;;5041229;28;20044;-85
2023/01/11 09:16:24;;;;;;;14.25;2.65;;;8.70;99.90;;;;;;5038498;28;20033;-85
2023/01/11 09:18:50;;;;;;;15.35;2.72;;;8.70;99.90;;;;;;5064997;28;20083;-85
2023/01/11 09:21:16;;;;;;;11.45;2.40;;;8.70;99.90;;;;;;5026966;28;20508;-85
2023/01/11 09:23:43;;;;;;;13.65;2.83;;;8.80;99.90;;;;;;5044571;28;20033;-85
2023/01/11 09:26:13;;;;;;;14.38;3.17;;;8.80;99.90;;;;;;5036503;28;20053;-84
2023/01/11 09:28:39;;;;;;;14.75;2.67;;;8.80;99.90;;;;;;5045333;28;20112;-85
2023/01/11 09:31:05;;;;;;;14.35;2.97;;;8.80;99.90;;;;;;5062868;28;20040;-85
2023/01/11 09:33:31;;;;;;;18.10;2.88;;;8.80;99.90;;;;;;5057717;28;20036;-85
2023/01/11 09:35:59;;;;;;;12.65;2.63;;;8.80;99.90;;;;;;5057884;28;20056;-85
2023/01/11 09:38:28;;;;;;;13.95;2.70;;;8.80;99.90;;;;;;5027566;28;20059;-84
2023/01/11 09:41:40;;;;;;;15.30;2.92;;;8.70;99.90;;;;;;5028456;28;20329;-85
2023/01/11 09:44:14;;;;;;;16.27;2.83;;;8.70;99.90;;;;;;5043876;28;20102;-85
2023/01/11 09:46:45;;;;;;;15.90;3.00;;;8.70;99.90;;;;;;5057844;28;20048;-85
2023/01/11 09:49:28;;;;;;;13.40;2.50;;;8.70;99.90;;;;;;5046006;28;20384;-84
2023/01/11 09:52:13;;;;;;;12.73;2.67;;;8.60;99.90;;;;;;5057534;28;20048;-84
2023/01/11 09:54:39;;;;;;;17.58;2.95;;;8.70;99.90;;;;;;5043660;28;20094;-84
2023/01/11 09:57:12;;;;;;;10.60;1.95;;;8.70;99.90;;;;;;5071960;28;20037;-85
2023/01/11 09:59:51;;;;;;;17.45;3.00;;;8.80;99.90;;;;;;5043696;28;20040;-85
2023/01/11 10:02:34;;;;;;;18.75;2.85;;;8.80;99.90;;;;;;5039407;28;20039;-85
2023/01/11 10:05:04;;;;;;;13.43;2.97;;;8.90;99.90;;;;;;5050130;28;20184;-85
2023/01/11 10:07:52;;;;;;;14.90;2.97;;;8.90;99.90;;;;;;5042110;28;20049;-86
2023/01/11 10:10:31;;;;;;;9.82;2.47;;;9.00;99.90;;;;;;5042656;28;20656;-85
2023/01/11 10:13:31;;;;;;;11.80;2.40;;;9.00;99.90;;;;;;5060845;28;20037;-85
2023/01/11 10:16:04;;;;;;;12.00;2.38;;;9.00;99.90;;;;;;5042124;28;20037;-84
2023/01/11 10:18:30;;;;;;;;;;;9.10;99.90;;;;;;5053686;28;20514;-85
2023/01/11 10:21:10;;;;;;;11.85;2.40;;;9.10;99.90;;;;;;5047458;28;19928;-86
2023/01/11 10:23:48;;;;;;;11.60;2.35;;;9.10;99.90;;;;;;5045587;28;20037;-86
2023/01/11 10:26:28;;;;;;;13.45;2.22;;;9.20;99.90;;;;;;5062977;28;20307;-86
2023/01/11 10:29:06;;;;;;;16.48;3.00;;;9.20;99.90;;;;;;5062725;28;20119;-86
2023/01/11 10:31:58;;;;;;;20.15;2.75;;;9.20;99.90;;;;;;5047167;28;20375;-86
2023/01/11 10:34:41;;;;;;;10.93;2.40;;;9.20;99.90;;;;;;5047755;28;20045;-86
2023/01/11 10:40:33;;;;;;;16.38;2.90;;;9.30;99.90;;;;;;5063011;28;20043;-86
2023/01/11 10:43:24;;;;;;;10.57;2.50;;;9.40;99.90;;;;;;5057983;28;21188;-85
2023/01/11 10:46:00;;;;;;;12.50;2.35;;;9.40;99.90;;;;;;5065778;28;20075;-85
2023/01/11 10:48:32;;;;;;;11.30;2.10;;;9.40;99.90;;;;;;5063885;28;20048;-85
2023/01/11 10:51:03;;;;;;;13.40;2.30;;;9.50;99.90;;;;;;5061127;28;20056;-86
2023/01/11 10:54:02;;;;;;;11.50;2.20;;;9.50;99.90;;;;;;5060178;28;20520;-86
2023/01/11 10:56:41;;;;;;;12.98;2.67;;;9.50;99.90;;;;;;5075618;28;20695;-85
2023/01/11 10:59:25;;;;;;;11.68;2.33;;;9.50;99.90;;;;;;5041384;28;20520;-85
2023/01/11 11:01:59;;;;;;;10.65;2.30;;;9.60;99.90;;;;;;5064001;28;20079;-85
2023/01/11 11:04:40;;;;;;;13.88;2.70;;;9.60;99.90;;;;;;5072586;28;20508;-86
2023/01/11 11:07:33;;;;;;;19.77;3.17;;;9.70;99.90;;;;;;5061602;28;20052;-86
2023/01/11 11:10:25;;;;;;;16.08;3.05;;;9.70;99.90;;;;;;5062320;28;20102;-84
2023/01/11 11:12:50;;;;;;;16.30;2.70;;;9.70;99.90;;;;;;5065253;28;20053;-86
2023/01/11 11:15:44;;;;;;;12.30;2.40;;;9.80;99.90;;;;;;5061477;28;20036;-84
2023/01/11 11:18:10;;;;;;;15.93;2.70;;;9.80;99.90;;;;;;5064978;28;20389;-87
2023/01/11 11:20:36;;;;;;;13.25;2.72;;;9.80;99.90;;;;;;5046596;28;20623;-86
2023/01/11 11:23:01;;;;;;;16.95;3.35;;;9.80;99.90;;;;;;5048256;28;20071;-85
2023/01/11 11:25:36;;;;;;;17.63;3.20;;;9.80;99.90;;;;;;5046725;28;20497;-86
2023/01/11 11:28:14;;;;;;;16.67;3.03;;;9.80;99.90;;;;;;5064492;28;20130;-86
2023/01/11 11:30:45;;;;;;;14.38;3.20;;;9.80;99.90;;;;;;5058246;28;20068;-86
2023/01/11 11:33:22;;;;;;;15.73;2.80;;;9.80;99.90;;;;;;5080053;28;20052;-87
2023/01/11 11:36:16;;;;;;;19.70;3.85;;;9.80;99.90;;;;;;5065760;28;20056;-86
2023/01/11 11:39:16;;;;;;;14.90;3.00;;;9.80;99.90;;;;;;5079542;28;20079;-86
2023/01/11 11:41:50;;;;;;;14.98;3.10;;;9.80;99.90;;;;;;5073653;28;20047;-86
2023/01/11 11:44:24;;;;;;;15.82;3.15;;;9.80;99.90;;;;;;5062931;28;20466;-86
2023/01/11 11:46:59;;;;;;;18.42;3.03;;;9.80;99.90;;;;;;5059042;28;20119;-85
2023/01/11 11:49:25;;;;;;;13.38;2.80;;;9.80;99.90;;;;;;5057669;28;20045;-85
2023/01/11 11:51:52;;;;;;;14.07;3.22;;;9.80;99.90;;;;;;5057307;28;20405;-86
2023/01/11 11:54:30;;;;;;;16.33;2.85;;;9.80;99.90;;;;;;5041637;28;20463;-86
2023/01/11 11:56:58;;;;;;;18.95;3.42;;;9.90;99.90;;;;;;5037705;28;20033;-86
2023/01/11 11:59:28;;;;;;;17.15;3.03;;;10.00;99.90;;;;;;5037084;28;20049;-85
2023/01/11 12:01:59;;;;;;;13.50;3.10;;;10.00;99.90;;;;;;5059946;28;20095;-85
2023/01/11 12:04:46;;;;;;;15.07;3.03;;;10.00;99.90;;;;;;5044987;28;20486;-85
2023/01/11 12:07:25;;;;;;;16.10;3.15;;;10.00;99.90;;;;;;5045538;28;20044;-86
2023/01/11 12:10:14;;;;;;;14.13;2.92;;;9.80;99.90;;;;;;5057696;28;20076;-85
2023/01/11 12:12:53;;;;;;;14.45;3.20;;;9.80;99.90;;;;;;5061232;28;20040;-86
2023/01/11 12:15:20;;;;;;;16.25;3.60;;;9.80;99.90;;;;;;5045949;28;20032;-86
2023/01/11 12:17:47;;;;;;;18.38;3.45;;;9.80;99.90;;;;;;5062390;28;20036;-86
2023/01/11 12:20:22;;;;;;;20.50;4.00;;;9.70;99.90;;;;;;5043725;28;20048;-86
2023/01/11 12:23:12;;;;;;;18.02;2.97;;;9.80;99.90;;;;;;5055458;28;20046;-86
2023/01/11 12:26:03;;;;;;;13.70;3.08;;;9.80;99.90;;;;;;5072254;28;20040;-86
2023/01/11 12:29:13;;;;;;;15.93;3.50;;;9.80;99.90;;;;;;5062165;28;20132;-86
2023/01/11 12:31:54;;;;;;;17.77;3.17;;;9.80;99.90;;;;;;5066638;28;20076;-85
2023/01/11 12:34:37;;;;;;;19.23;4.07;;;9.80;99.90;;;;;;5045276;28;20637;-86
2023/01/11 12:37:33;;;;;;;18.95;3.10;;;9.70;99.90;;;;;;5056824;28;20504;-86
2023/01/11 12:40:28;;;;;;;22.38;3.40;;;9.70;99.90;;;;;;5059633;28;20032;-86
2023/01/11 12:43:12;;;;;;;17.33;3.75;;;9.60;99.90;;;;;;5030696;28;20167;-86
2023/01/11 12:46:16;;;;;;;16.58;2.83;;;9.60;99.90;;;;;;5061723;28;20079;-86
2023/01/11 12:49:12;;;;;;;20.40;3.40;;;9.60;99.90;;;;;;5048123;28;20044;-87
2023/01/11 12:52:11;;;;;;;15.30;3.25;;;9.50;99.90;;;;;;5039201;28;20416;-85
2023/01/11 12:54:46;;;;;;;15.38;3.10;;;9.50;99.90;;;;;;5057453;28;20033;-86
2023/01/11 12:57:33;;;;;;;18.90;3.40;;;9.50;99.90;;;;;;5042181;28;20059;-87
2023/01/11 12:59:58;;;;;;;17.23;3.53;;;9.50;99.90;;;;;;5032148;28;20047;-86
2023/01/11 13:03:01;;;;;;;15.07;3.03;;;9.50;99.90;;;;;;5046584;28;20041;-86
2023/01/11 13:05:59;;;;;;;14.17;2.73;;;9.60;99.90;;;;;;5041521;28;20067;-87
2023/01/11 13:08:37;;;;;;;19.52;3.38;;;9.60;99.90;;;;;;5072149;28;20048;-86
2023/01/11 13:11:34;;;;;;;17.27;3.40;;;9.70;99.90;;;;;;5045806;28;20072;-86
2023/01/11 13:14:21;;;;;;;17.55;3.90;;;9.60;99.90;;;;;;5058678;28;20049;-87
2023/01/11 13:16:53;;;;;;;18.70;3.17;;;9.60;99.90;;;;;;5057449;28;20041;-86
2023/01/11 13:19:51;;;;;;;22.58;4.07;;;9.60;99.90;;;;;;5044948;28;20113;-86
2023/01/11 13:22:22;;;;;;;18.58;3.28;;;9.60;99.90;;;;;;5053049;28;20501;-86
2023/01/11 13:24:49;;;;;;;21.65;4.15;;;9.60;99.90;;;;;;5059060;28;20047;-86
2023/01/11 13:27:21;;;;;;;21.92;3.83;;;9.50;99.90;;;;;;5061754;28;20059;-86
2023/01/11 13:29:51;;;;;;;19.00;3.53;;;9.50;99.90;;;;;;5058260;28;20040;-86
2023/01/11 13:32:39;;;;;;;19.73;3.80;;;9.40;99.90;;;;;;5040144;28;20402;-87
2023/01/11 13:35:15;;;;;;;18.05;3.42;;;9.40;99.90;;;;;;5059542;28;20040;-86
2023/01/11 13:38:00;;;;;;;18.52;3.35;;;9.40;99.90;;;;;;5073658;28;20770;-86
2023/01/11 13:40:46;;;;;;;18.15;3.83;;;9.40;99.90;;;;;;5059518;28;20165;-86